Time,TemperatureF,DewpointF,PressureIn,WindDirection,WindDirectionDegrees,WindSpeedMPH,WindSpeedGustMPH,Humidity,HourlyPrecipIn,Conditions,Clouds,dailyrainin,SoftwareType,DateUTC
2013-07-19 00:01:00,74.7,70.6,29.77,ENE,73,0.0,0.0,87,0.00,,,0.00,WeatherCatV1.11B39,2013-07-19 04:01:00,
2013-07-19 00:06:00,74.4,70.6,29.77,ENE,73,0.0,0.0,88,0.00,,,0.00,WeatherCatV1.11B39,2013-07-19 04:06:00,
2013-07-19 00:11:00,74.3,70.5,29.77,ENE,73,0.0,0.0,88,0.00,,,0.00,WeatherCatV1.11B39,2013-07-19 04:11:00,
2013-07-19 00:16:00,74.4,70.6,29.77,ENE,73,0.0,0.0,88,0.00,,,0.00,WeatherCatV1.11B39,2013-07-19 04:16:00,
2013-07-19 00:21:00,74.5,70.7,29.77,ENE,73,0.0,0.0,88,0.00,,,0.00,WeatherCatV1.11B39,2013-07-19 04:21:00,
2013-07-19 00:26:00,74.3,70.8,29.76,ENE,73,0.0,0.0,89,0.00,,,0.00,WeatherCatV1.11B39,2013-07-19 04:26:00,
2013-07-19 00:31:00,74.3,71.2,29.76,ENE,73,0.0,0.0,90,0.00,,,0.00,WeatherCatV1.11B39,2013-07-19 04:31:00,
2013-07-19 00:32:00,74.3,70.8,29.75,ENE,73,0.0,0.0,89,0.00,,,0.00,WeatherCatV1.11B39,2013-07-19 04:32:00,
2013-07-19 00:37:00,74.1,70.6,29.75,ENE,73,0.0,0.0,89,0.00,,,0.00,WeatherCatV1.11B39,2013-07-19 04:37:00,
2013-07-19 00:42:00,74.0,70.9,29.75,ENE,73,0.0,0.0,90,0.00,,,0.00,WeatherCatV1.11B39,2013-07-19 04:42:00,
2013-07-19 00:47:00,73.9,70.4,29.76,ENE,73,0.0,0.0,89,0.00,,,0.00,WeatherCatV1.11B39,2013-07-19 04:47:00,
2013-07-19 00:52:00,73.9,70.8,29.75,ENE,73,0.0,0.0,90,0.00,,,0.00,WeatherCatV1.11B39,2013-07-19 04:52:00,
2013-07-19 00:57:00,73.8,70.7,29.76,ENE,73,0.0,0.0,90,0.00,,,0.00,WeatherCatV1.11B39,2013-07-19 04:57:00,
2013-07-19 01:02:00,73.6,70.5,29.75,ENE,73,0.0,0.0,90,0.00,,,0.00,WeatherCatV1.11B39,2013-07-19 05:02:00,
2013-07-19 01:07:00,73.6,70.5,29.75,ENE,73,0.0,0.0,90,0.00,,,0.00,WeatherCatV1.11B39,2013-07-19 05:07:00,
2013-07-19 01:12:00,73.4,70.3,29.75,ENE,73,0.0,0.0,90,0.00,,,0.00,WeatherCatV1.11B39,2013-07-19 05:12:00,
2013-07-19 01:17:00,73.6,70.8,29.76,ENE,73,0.0,0.0,91,0.00,,,0.00,WeatherCatV1.11B39,2013-07-19 05:17:00,
2013-07-19 01:22:00,73.5,70.4,29.76,ENE,73,0.0,0.0,90,0.00,,,0.00,WeatherCatV1.11B39,2013-07-19 05:22:00,
2013-07-19 01:27:00,73.4,70.6,29.75,ENE,73,0.0,0.0,91,0.00,,,0.00,WeatherCatV1.11B39,2013-07-19 05:27:00,
2013-07-19 01:32:00,73.4,70.6,29.75,ENE,73,0.0,0.0,91,0.00,,,0.00,WeatherCatV1.11B39,2013-07-19 05:32:00,
2013-07-19 01:37:00,73.6,70.8,29.75,ENE,73,0.0,0.0,91,0.00,,,0.00,WeatherCatV1.11B39,2013-07-19 05:37:00,
2013-07-19 01:42:00,73.4,70.6,29.75,ENE,73,0.0,0.0,91,0.00,,,0.00,WeatherCatV1.11B39,2013-07-19 05:42:00,
2013-07-19 01:47:00,73.4,70.6,29.75,ENE,73,0.0,0.0,91,0.00,,,0.00,WeatherCatV1.11B39,2013-07-19 05:47:00,
2013-07-19 01:52:00,73.4,70.6,29.75,ENE,73,0.0,0.0,91,0.00,,,0.00,WeatherCatV1.11B39,2013-07-19 05:52:00,
2013-07-19 01:57:00,73.3,70.5,29.75,ENE,73,0.0,0.0,91,0.00,,,0.00,WeatherCatV1.11B39,2013-07-19 05:57:00,
2013-07-19 02:02:00,73.1,70.3,29.75,ENE,73,0.0,0.0,91,0.00,,,0.00,WeatherCatV1.11B39,2013-07-19 06:02:00,
2013-07-19 02:07:00,73.1,70.3,29.75,ENE,73,0.0,0.0,91,0.00,,,0.00,WeatherCatV1.11B39,2013-07-19 06:07:00,
2013-07-19 02:12:00,73.1,70.3,29.75,ENE,73,0.0,0.0,91,0.00,,,0.00,WeatherCatV1.11B39,2013-07-19 06:12:00,
2013-07-19 02:17:00,73.1,70.3,29.75,ENE,73,0.0,0.0,91,0.00,,,0.00,WeatherCatV1.11B39,2013-07-19 06:17:00,
2013-07-19 02:22:00,73.1,70.3,29.76,ENE,73,0.0,0.0,91,0.00,,,0.00,WeatherCatV1.11B39,2013-07-19 06:22:00,
2013-07-19 02:27:00,73.1,70.6,29.75,ENE,73,0.0,0.0,92,0.00,,,0.00,WeatherCatV1.11B39,2013-07-19 06:27:00,
2013-07-19 02:32:00,73.1,70.6,29.75,ENE,73,0.0,0.0,92,0.00,,,0.00,WeatherCatV1.11B39,2013-07-19 06:32:00,
2013-07-19 02:37:00,73.1,70.6,29.75,ENE,73,0.0,0.0,92,0.00,,,0.00,WeatherCatV1.11B39,2013-07-19 06:37:00,
2013-07-19 02:42:00,73.1,70.6,29.75,ENE,73,0.0,0.0,92,0.00,,,0.00,WeatherCatV1.11B39,2013-07-19 06:42:00,
2013-07-19 02:47:00,73.1,70.3,29.74,ENE,73,0.0,0.0,91,0.00,,,0.00,WeatherCatV1.11B39,2013-07-19 06:47:00,
2013-07-19 02:52:00,73.1,70.6,29.74,ENE,73,0.0,0.0,92,0.00,,,0.00,WeatherCatV1.11B39,2013-07-19 06:52:00,
2013-07-19 02:57:00,73.1,70.6,29.74,ENE,73,0.0,0.0,92,0.00,,,0.00,WeatherCatV1.11B39,2013-07-19 06:57:00,
2013-07-19 03:02:00,73.0,70.5,29.74,ENE,73,0.0,0.0,92,0.00,,,0.00,WeatherCatV1.11B39,2013-07-19 07:02:00,
2013-07-19 03:07:00,73.1,70.9,29.74,ENE,73,0.0,0.0,93,0.00,,,0.00,WeatherCatV1.11B39,2013-07-19 07:07:00,
2013-07-19 03:12:00,73.1,70.9,29.74,ENE,73,0.0,0.0,93,0.00,,,0.00,WeatherCatV1.11B39,2013-07-19 07:12:00,
2013-07-19 03:17:00,73.1,70.9,29.74,ENE,73,0.0,0.0,93,0.00,,,0.00,WeatherCatV1.11B39,2013-07-19 07:17:00,
2013-07-19 03:22:00,72.9,70.8,29.73,ENE,73,0.0,0.0,93,0.00,,,0.00,WeatherCatV1.11B39,2013-07-19 07:22:00,
2013-07-19 03:27:00,72.8,70.7,29.74,ENE,73,0.0,0.0,93,0.00,,,0.00,WeatherCatV1.11B39,2013-07-19 07:27:00,
2013-07-19 03:32:00,72.8,71.0,29.73,ENE,73,0.0,0.0,94,0.00,,,0.00,WeatherCatV1.11B39,2013-07-19 07:32:00,
2013-07-19 03:37:00,72.9,70.8,29.73,ENE,73,0.0,0.0,93,0.00,,,0.00,WeatherCatV1.11B39,2013-07-19 07:37:00,
2013-07-19 03:42:00,72.8,70.7,29.74,ENE,73,0.0,0.0,93,0.00,,,0.00,WeatherCatV1.11B39,2013-07-19 07:42:00,
2013-07-19 03:47:00,72.7,70.6,29.73,ENE,73,0.0,0.0,93,0.00,,,0.00,WeatherCatV1.11B39,2013-07-19 07:47:00,
2013-07-19 03:52:00,72.8,71.0,29.73,ENE,73,0.0,0.0,94,0.00,,,0.00,WeatherCatV1.11B39,2013-07-19 07:52:00,
2013-07-19 03:57:00,72.8,71.0,29.73,ENE,73,0.0,0.0,94,0.00,,,0.00,WeatherCatV1.11B39,2013-07-19 07:57:00,
2013-07-19 04:02:00,72.9,71.1,29.73,ENE,73,0.0,0.0,94,0.00,,,0.00,WeatherCatV1.11B39,2013-07-19 08:02:00,
2013-07-19 04:07:00,73.1,71.3,29.72,ENE,73,0.0,0.0,94,0.00,,,0.00,WeatherCatV1.11B39,2013-07-19 08:07:00,
2013-07-19 04:12:00,73.1,71.3,29.72,ENE,73,0.0,0.0,94,0.00,,,0.00,WeatherCatV1.11B39,2013-07-19 08:12:00,
2013-07-19 04:17:00,73.3,71.5,29.72,ENE,73,0.0,0.0,94,0.00,,,0.00,WeatherCatV1.11B39,2013-07-19 08:17:00,
2013-07-19 04:22:00,73.5,72.0,29.72,ENE,73,0.0,0.0,95,0.00,,,0.00,WeatherCatV1.11B39,2013-07-19 08:22:00,
2013-07-19 04:27:00,73.5,71.7,29.72,ENE,73,0.0,0.0,94,0.00,,,0.00,WeatherCatV1.11B39,2013-07-19 08:27:00,
2013-07-19 04:32:00,73.4,71.6,29.71,ENE,73,0.0,0.0,94,0.00,,,0.00,WeatherCatV1.11B39,2013-07-19 08:32:00,
2013-07-19 04:37:00,73.5,71.7,29.71,ENE,73,0.0,0.0,94,0.00,,,0.00,WeatherCatV1.11B39,2013-07-19 08:37:00,
2013-07-19 04:42:00,73.5,72.0,29.71,ENE,73,0.0,0.0,95,0.00,,,0.00,WeatherCatV1.11B39,2013-07-19 08:42:00,
2013-07-19 04:47:00,73.3,71.5,29.71,ENE,73,0.0,0.0,94,0.00,,,0.00,WeatherCatV1.11B39,2013-07-19 08:47:00,
2013-07-19 04:52:00,73.3,71.5,29.71,ENE,73,0.0,0.0,94,0.00,,,0.00,WeatherCatV1.11B39,2013-07-19 08:52:00,
2013-07-19 04:57:00,73.1,71.3,29.71,ENE,73,0.0,0.0,94,0.00,,,0.00,WeatherCatV1.11B39,2013-07-19 08:57:00,
2013-07-19 05:02:00,73.1,71.3,29.71,ENE,73,0.0,0.0,94,0.00,,,0.00,WeatherCatV1.11B39,2013-07-19 09:02:00,
2013-07-19 05:07:00,73.1,71.3,29.72,ENE,73,0.0,0.0,94,0.00,,,0.00,WeatherCatV1.11B39,2013-07-19 09:07:00,
2013-07-19 05:12:00,73.1,71.3,29.71,ENE,73,0.0,0.0,94,0.00,,,0.00,WeatherCatV1.11B39,2013-07-19 09:12:00,
2013-07-19 05:17:00,73.1,71.3,29.72,ENE,73,0.0,0.0,94,0.00,,,0.00,WeatherCatV1.11B39,2013-07-19 09:17:00,
2013-07-19 05:22:00,73.3,71.5,29.71,ENE,73,0.0,0.0,94,0.00,,,0.00,WeatherCatV1.11B39,2013-07-19 09:22:00,
2013-07-19 05:27:00,73.5,71.7,29.71,ENE,73,0.0,0.0,94,0.00,,,0.00,WeatherCatV1.11B39,2013-07-19 09:27:00,
2013-07-19 05:32:00,73.3,71.8,29.72,ENE,73,0.0,0.0,95,0.00,,,0.00,WeatherCatV1.11B39,2013-07-19 09:32:00,
2013-07-19 05:37:00,73.3,71.5,29.71,ENE,73,0.0,0.0,94,0.00,,,0.00,WeatherCatV1.11B39,2013-07-19 09:37:00,
2013-07-19 05:42:00,73.3,71.8,29.71,ENE,73,0.0,0.0,95,0.00,,,0.00,WeatherCatV1.11B39,2013-07-19 09:42:00,
2013-07-19 05:47:00,73.4,71.6,29.72,ENE,73,0.0,0.0,94,0.00,,,0.00,WeatherCatV1.11B39,2013-07-19 09:47:00,
2013-07-19 05:52:00,73.4,71.9,29.72,ENE,73,0.0,0.0,95,0.00,,,0.00,WeatherCatV1.11B39,2013-07-19 09:52:00,
2013-07-19 05:57:00,73.5,72.0,29.72,ENE,73,0.0,0.0,95,0.00,,,0.00,WeatherCatV1.11B39,2013-07-19 09:57:00,
2013-07-19 06:02:00,73.3,71.8,29.71,ENE,73,0.0,0.0,95,0.00,,,0.00,WeatherCatV1.11B39,2013-07-19 10:02:00,
2013-07-19 06:07:00,73.3,71.5,29.72,ENE,73,0.0,0.0,94,0.00,,,0.00,WeatherCatV1.11B39,2013-07-19 10:07:00,
2013-07-19 06:12:00,73.4,71.9,29.71,ENE,73,0.0,0.0,95,0.00,,,0.00,WeatherCatV1.11B39,2013-07-19 10:12:00,
2013-07-19 06:17:00,73.4,71.9,29.71,ENE,73,0.0,0.0,95,0.00,,,0.00,WeatherCatV1.11B39,2013-07-19 10:17:00,
2013-07-19 06:22:00,73.6,72.1,29.71,ENE,73,0.0,0.0,95,0.00,,,0.00,WeatherCatV1.11B39,2013-07-19 10:22:00,
2013-07-19 06:27:00,73.6,72.1,29.71,ENE,73,0.0,0.0,95,0.00,,,0.00,WeatherCatV1.11B39,2013-07-19 10:27:00,
2013-07-19 06:32:00,73.8,72.3,29.71,ENE,73,0.0,0.0,95,0.00,,,0.00,WeatherCatV1.11B39,2013-07-19 10:32:00,
2013-07-19 06:37:00,74.0,72.5,29.71,ENE,73,0.0,0.0,95,0.00,,,0.00,WeatherCatV1.11B39,2013-07-19 10:37:00,
2013-07-19 06:42:00,74.1,72.6,29.71,ENE,73,0.0,0.0,95,0.00,,,0.00,WeatherCatV1.11B39,2013-07-19 10:42:00,
2013-07-19 06:47:00,74.3,72.8,29.72,ENE,73,0.0,0.0,95,0.00,,,0.00,WeatherCatV1.11B39,2013-07-19 10:47:00,
2013-07-19 06:52:00,74.3,72.8,29.71,ENE,73,0.0,0.0,95,0.00,,,0.00,WeatherCatV1.11B39,2013-07-19 10:52:00,
2013-07-19 06:57:00,74.6,73.1,29.71,ENE,73,0.0,0.0,95,0.00,,,0.00,WeatherCatV1.11B39,2013-07-19 10:57:00,
2013-07-19 07:02:00,75.0,73.5,29.71,ENE,70,0.0,0.0,95,0.00,,,0.00,WeatherCatV1.11B39,2013-07-19 11:02:00,
2013-07-19 07:07:00,75.2,73.7,29.71,ENE,65,0.0,0.0,95,0.00,,,0.00,WeatherCatV1.11B39,2013-07-19 11:07:00,
2013-07-19 07:12:00,75.3,73.8,29.71,ENE,65,0.0,0.0,95,0.00,,,0.00,WeatherCatV1.11B39,2013-07-19 11:12:00,
2013-07-19 07:17:00,75.7,74.2,29.70,ENE,65,0.0,0.0,95,0.00,,,0.00,WeatherCatV1.11B39,2013-07-19 11:17:00,
2013-07-19 07:22:00,76.1,74.6,29.70,ENE,65,1.0,1.0,95,0.00,,,0.00,WeatherCatV1.11B39,2013-07-19 11:22:00,
2013-07-19 07:27:00,76.4,74.9,29.70,SE,127,0.0,0.0,95,0.00,,,0.00,WeatherCatV1.11B39,2013-07-19 11:27:00,
2013-07-19 07:32:00,76.9,75.0,29.70,SE,127,0.0,0.0,94,0.00,,,0.00,WeatherCatV1.11B39,2013-07-19 11:32:00,
2013-07-19 07:37:00,77.5,75.6,29.70,SE,127,0.0,0.0,94,0.00,,,0.00,WeatherCatV1.11B39,2013-07-19 11:37:00,
2013-07-19 07:42:00,78.2,75.7,29.70,SE,127,0.0,0.0,92,0.00,,,0.00,WeatherCatV1.11B39,2013-07-19 11:42:00,
2013-07-19 07:47:00,78.7,75.5,29.71,SE,127,0.0,0.0,90,0.00,,,0.00,WeatherCatV1.11B39,2013-07-19 11:47:00,
2013-07-19 07:52:00,78.9,74.7,29.70,SE,127,0.0,0.0,87,0.00,,,0.00,WeatherCatV1.11B39,2013-07-19 11:52:00,
2013-07-19 07:57:00,79.3,74.7,29.70,SE,127,0.0,0.0,86,0.00,,,0.00,WeatherCatV1.11B39,2013-07-19 11:57:00,
2013-07-19 08:02:00,79.9,75.0,29.71,SE,124,0.0,0.0,85,0.00,,,0.00,WeatherCatV1.11B39,2013-07-19 12:02:00,
2013-07-19 08:07:00,80.0,74.7,29.70,SE,124,0.0,0.0,84,0.00,,,0.00,WeatherCatV1.11B39,2013-07-19 12:07:00,
2013-07-19 08:12:00,80.4,74.7,29.70,SE,136,0.0,0.0,83,0.00,,,0.00,WeatherCatV1.11B39,2013-07-19 12:12:00,
2013-07-19 08:17:00,81.2,74.4,29.70,SW,230,2.0,2.0,80,0.00,,,0.00,WeatherCatV1.11B39,2013-07-19 12:17:00,
2013-07-19 08:22:00,81.7,73.8,29.70,WSW,238,3.0,4.0,77,0.00,,,0.00,WeatherCatV1.11B39,2013-07-19 12:22:00,
2013-07-19 08:27:00,82.3,72.8,29.70,WSW,249,5.0,8.0,73,0.00,,,0.00,WeatherCatV1.11B39,2013-07-19 12:27:00,
2013-07-19 08:32:00,82.7,72.7,29.70,WSW,241,4.0,5.0,72,0.00,,,0.00,WeatherCatV1.11B39,2013-07-19 12:32:00,
2013-07-19 08:37:00,83.2,72.8,29.70,WSW,252,6.0,7.0,71,0.00,,,0.00,WeatherCatV1.11B39,2013-07-19 12:37:00,
2013-07-19 08:42:00,83.5,72.7,29.70,WSW,256,0.0,4.0,70,0.00,,,0.00,WeatherCatV1.11B39,2013-07-19 12:42:00,
2013-07-19 08:47:00,83.6,72.8,29.69,West,260,5.0,5.0,70,0.00,,,0.00,WeatherCatV1.11B39,2013-07-19 12:47:00,
2013-07-19 08:52:00,84.0,72.7,29.70,WSW,252,2.0,7.0,69,0.00,,,0.00,WeatherCatV1.11B39,2013-07-19 12:52:00,
2013-07-19 08:57:00,84.2,72.9,29.69,WNW,286,0.0,0.0,69,0.00,,,0.00,WeatherCatV1.11B39,2013-07-19 12:57:00,
2013-07-19 09:02:00,84.4,72.7,29.70,WNW,302,0.0,7.0,68,0.00,,,0.00,WeatherCatV1.11B39,2013-07-19 13:02:00,
2013-07-19 09:07:00,84.4,72.2,29.70,WNW,289,0.0,5.0,67,0.00,,,0.00,WeatherCatV1.11B39,2013-07-19 13:07:00,
2013-07-19 09:12:00,84.6,73.3,29.70,West,281,3.0,8.0,69,0.00,,,0.00,WeatherCatV1.11B39,2013-07-19 13:12:00,
2013-07-19 09:17:00,84.8,73.0,29.70,WNW,284,5.0,9.0,68,0.00,,,0.00,WeatherCatV1.11B39,2013-07-19 13:17:00,
2013-07-19 09:22:00,84.8,73.0,29.70,WSW,248,7.0,7.0,68,0.00,,,0.00,WeatherCatV1.11B39,2013-07-19 13:22:00,
2013-07-19 09:27:00,85.0,73.2,29.69,WSW,249,2.0,8.0,68,0.00,,,0.00,WeatherCatV1.11B39,2013-07-19 13:27:00,
2013-07-19 09:32:00,85.2,73.0,29.69,WSW,253,7.0,10.0,67,0.00,,,0.00,WeatherCatV1.11B39,2013-07-19 13:32:00,
2013-07-19 09:37:00,85.4,73.2,29.69,WSW,255,0.0,6.0,67,0.00,,,0.00,WeatherCatV1.11B39,2013-07-19 13:37:00,
2013-07-19 09:42:00,85.6,73.8,29.69,WSW,254,0.0,0.0,68,0.00,,,0.00,WeatherCatV1.11B39,2013-07-19 13:42:00,
2013-07-19 09:47:00,86.0,72.4,29.69,WSW,250,4.0,7.0,64,0.00,,,0.00,WeatherCatV1.11B39,2013-07-19 13:47:00,
2013-07-19 09:52:00,86.2,73.5,29.69,West,259,0.0,0.0,66,0.00,,,0.00,WeatherCatV1.11B39,2013-07-19 13:52:00,
2013-07-19 09:57:00,86.6,73.9,29.69,WSW,246,5.0,7.0,66,0.00,,,0.00,WeatherCatV1.11B39,2013-07-19 13:57:00,
2013-07-19 10:02:00,86.7,72.1,29.69,NW,317,8.0,10.0,62,0.00,,,0.00,WeatherCatV1.11B39,2013-07-19 14:02:00,
2013-07-19 10:07:00,86.9,72.3,29.69,WSW,248,7.0,7.0,62,0.00,,,0.00,WeatherCatV1.11B39,2013-07-19 14:07:00,
2013-07-19 10:12:00,86.6,72.0,29.69,WSW,249,0.0,9.0,62,0.00,,,0.00,WeatherCatV1.11B39,2013-07-19 14:12:00,
2013-07-19 10:17:00,86.6,72.9,29.69,WSW,253,0.0,0.0,64,0.00,,,0.00,WeatherCatV1.11B39,2013-07-19 14:17:00,
2013-07-19 10:22:00,86.9,73.2,29.68,WSW,252,5.0,6.0,64,0.00,,,0.00,WeatherCatV1.11B39,2013-07-19 14:22:00,
2013-07-19 10:27:00,87.3,73.6,29.68,WSW,253,4.0,6.0,64,0.00,,,0.00,WeatherCatV1.11B39,2013-07-19 14:27:00,
2013-07-19 10:32:00,87.7,73.0,29.68,WSW,250,0.0,5.0,62,0.00,,,0.00,WeatherCatV1.11B39,2013-07-19 14:32:00,
2013-07-19 10:37:00,87.9,72.7,29.69,WSW,251,3.0,7.0,61,0.00,,,0.00,WeatherCatV1.11B39,2013-07-19 14:37:00,
2013-07-19 10:42:00,88.1,73.4,29.68,West,259,10.0,12.0,62,0.00,,,0.00,WeatherCatV1.11B39,2013-07-19 14:42:00,
2013-07-19 10:47:00,88.1,71.4,29.68,WNW,302,6.0,8.0,58,0.00,,,0.00,WeatherCatV1.11B39,2013-07-19 14:47:00,
2013-07-19 10:52:00,88.3,71.6,29.68,West,267,11.0,11.0,58,0.00,,,0.00,WeatherCatV1.11B39,2013-07-19 14:52:00,
2013-07-19 10:57:00,88.5,70.8,29.67,NW,313,8.0,12.0,56,0.00,,,0.00,WeatherCatV1.11B39,2013-07-19 14:57:00,
2013-07-19 11:02:00,88.5,70.8,29.68,WSW,249,3.0,11.0,56,0.00,,,0.00,WeatherCatV1.11B39,2013-07-19 15:02:00,
2013-07-19 11:07:00,88.7,71.5,29.68,West,273,5.0,9.0,57,0.00,,,0.00,WeatherCatV1.11B39,2013-07-19 15:07:00,
2013-07-19 11:12:00,88.9,71.7,29.67,West,260,9.0,9.0,57,0.00,,,0.00,WeatherCatV1.11B39,2013-07-19 15:12:00,
2013-07-19 11:17:00,88.9,70.6,29.67,WSW,256,9.0,11.0,55,0.00,,,0.00,WeatherCatV1.11B39,2013-07-19 15:17:00,
2013-07-19 11:22:00,89.2,70.9,29.67,WSW,256,3.0,7.0,55,0.00,,,0.00,WeatherCatV1.11B39,2013-07-19 15:22:00,
2013-07-19 11:27:00,89.3,71.0,29.67,SW,230,2.0,15.0,55,0.00,,,0.00,WeatherCatV1.11B39,2013-07-19 15:27:00,
2013-07-19 11:32:00,89.4,70.5,29.67,WSW,258,0.0,8.0,54,0.00,,,0.00,WeatherCatV1.11B39,2013-07-19 15:32:00,
2013-07-19 11:37:00,89.6,70.7,29.67,West,274,12.0,12.0,54,0.00,,,0.00,WeatherCatV1.11B39,2013-07-19 15:37:00,
2013-07-19 11:42:00,89.6,71.3,29.66,WSW,253,7.0,10.0,55,0.00,,,0.00,WeatherCatV1.11B39,2013-07-19 15:42:00,
2013-07-19 11:47:00,89.6,71.3,29.67,WSW,256,7.0,7.0,55,0.00,,,0.00,WeatherCatV1.11B39,2013-07-19 15:47:00,
2013-07-19 11:52:00,89.8,72.0,29.66,West,264,1.0,6.0,56,0.00,,,0.00,WeatherCatV1.11B39,2013-07-19 15:52:00,
2013-07-19 11:57:00,89.8,70.9,29.66,WNW,282,9.0,10.0,54,0.00,,,0.00,WeatherCatV1.11B39,2013-07-19 15:57:00,
2013-07-19 12:02:00,89.8,70.3,29.66,WSW,257,8.0,11.0,53,0.00,,,0.00,WeatherCatV1.11B39,2013-07-19 16:02:00,
2013-07-19 12:07:00,90.0,70.5,29.66,NW,325,2.0,8.0,53,0.00,,,0.00,WeatherCatV1.11B39,2013-07-19 16:07:00,
2013-07-19 12:13:00,90.2,70.7,29.65,WSW,253,4.0,10.0,53,0.00,,,0.00,WeatherCatV1.11B39,2013-07-19 16:13:00,
2013-07-19 12:18:00,90.1,70.1,29.65,NW,325,4.0,9.0,52,0.00,,,0.00,WeatherCatV1.11B39,2013-07-19 16:18:00,
2013-07-19 12:23:00,90.4,70.3,29.66,West,262,0.0,10.0,52,0.00,,,0.00,WeatherCatV1.11B39,2013-07-19 16:23:00,
2013-07-19 12:28:00,90.1,71.7,29.65,NW,316,0.0,7.0,55,0.00,,,0.00,WeatherCatV1.11B39,2013-07-19 16:28:00,
2013-07-19 12:33:00,90.3,70.8,29.65,NW,320,4.0,11.0,53,0.00,,,0.00,WeatherCatV1.11B39,2013-07-19 16:33:00,
2013-07-19 12:38:00,90.6,72.2,29.65,WSW,251,4.0,5.0,55,0.00,,,0.00,WeatherCatV1.11B39,2013-07-19 16:38:00,
2013-07-19 12:43:00,90.6,71.6,29.64,NW,313,7.0,11.0,54,0.00,,,0.00,WeatherCatV1.11B39,2013-07-19 16:43:00,
2013-07-19 12:48:00,90.6,72.2,29.65,West,271,3.0,8.0,55,0.00,,,0.00,WeatherCatV1.11B39,2013-07-19 16:48:00,
2013-07-19 12:53:00,90.8,72.9,29.64,WSW,252,0.0,6.0,56,0.00,,,0.00,WeatherCatV1.11B39,2013-07-19 16:53:00,
2013-07-19 12:58:00,90.8,71.8,29.64,SW,234,2.0,9.0,54,0.00,,,0.00,WeatherCatV1.11B39,2013-07-19 16:58:00,
2013-07-19 13:03:00,90.8,71.8,29.64,West,278,9.0,9.0,54,0.00,,,0.00,WeatherCatV1.11B39,2013-07-19 17:03:00,
2013-07-19 13:08:00,90.6,71.1,29.64,NNW,327,4.0,10.0,53,0.00,,,0.00,WeatherCatV1.11B39,2013-07-19 17:08:00,
2013-07-19 13:13:00,90.8,71.3,29.64,NNW,331,6.0,9.0,53,0.00,,,0.00,WeatherCatV1.11B39,2013-07-19 17:13:00,
2013-07-19 13:18:00,91.0,70.3,29.64,WSW,243,8.0,16.0,51,0.00,,,0.00,WeatherCatV1.11B39,2013-07-19 17:18:00,
2013-07-19 13:23:00,90.8,70.1,29.63,West,270,8.0,12.0,51,0.00,,,0.00,WeatherCatV1.11B39,2013-07-19 17:23:00,
2013-07-19 13:28:00,90.8,71.3,29.63,West,259,7.0,12.0,53,0.00,,,0.00,WeatherCatV1.11B39,2013-07-19 17:28:00,
2013-07-19 13:33:00,90.8,70.1,29.64,WSW,249,2.0,11.0,51,0.00,,,0.00,WeatherCatV1.11B39,2013-07-19 17:33:00,
2013-07-19 13:38:00,90.8,70.7,29.63,West,261,6.0,13.0,52,0.00,,,0.00,WeatherCatV1.11B39,2013-07-19 17:38:00,
2013-07-19 13:43:00,90.8,70.7,29.62,WSW,258,0.0,10.0,52,0.00,,,0.00,WeatherCatV1.11B39,2013-07-19 17:43:00,
2013-07-19 13:48:00,91.0,69.7,29.62,West,259,7.0,13.0,50,0.00,,,0.00,WeatherCatV1.11B39,2013-07-19 17:48:00,
2013-07-19 13:53:00,91.0,72.0,29.62,West,269,4.0,8.0,54,0.00,,,0.00,WeatherCatV1.11B39,2013-07-19 17:53:00,
2013-07-19 13:58:00,91.0,70.9,29.62,West,280,11.0,18.0,52,0.00,,,0.00,WeatherCatV1.11B39,2013-07-19 17:58:00,
2013-07-19 14:03:00,91.0,71.4,29.62,West,279,6.0,9.0,53,0.00,,,0.00,WeatherCatV1.11B39,2013-07-19 18:03:00,
2013-07-19 14:08:00,91.2,70.5,29.62,WSW,239,8.0,13.0,51,0.00,,,0.00,WeatherCatV1.11B39,2013-07-19 18:08:00,
2013-07-19 14:13:00,91.2,69.9,29.61,WSW,249,8.0,10.0,50,0.00,,,0.00,WeatherCatV1.11B39,2013-07-19 18:13:00,
2013-07-19 14:18:00,91.4,70.1,29.61,NNW,334,9.0,9.0,50,0.00,,,0.00,WeatherCatV1.11B39,2013-07-19 18:18:00,
2013-07-19 14:23:00,91.4,71.3,29.61,West,264,5.0,10.0,52,0.00,,,0.00,WeatherCatV1.11B39,2013-07-19 18:23:00,
2013-07-19 14:28:00,91.4,71.3,29.61,WSW,258,5.0,9.0,52,0.00,,,0.00,WeatherCatV1.11B39,2013-07-19 18:28:00,
2013-07-19 14:33:00,91.4,71.3,29.61,West,275,6.0,9.0,52,0.00,,,0.00,WeatherCatV1.11B39,2013-07-19 18:33:00,
2013-07-19 14:38:00,91.6,70.3,29.60,WSW,258,9.0,14.0,50,0.00,,,0.00,WeatherCatV1.11B39,2013-07-19 18:38:00,
2013-07-19 14:43:00,91.6,70.3,29.60,NW,316,8.0,13.0,50,0.00,,,0.00,WeatherCatV1.11B39,2013-07-19 18:43:00,
2013-07-19 14:48:00,91.7,70.4,29.60,WSW,248,6.0,12.0,50,0.00,,,0.00,WeatherCatV1.11B39,2013-07-19 18:48:00,
2013-07-19 14:53:00,91.6,70.3,29.60,WSW,254,13.0,13.0,50,0.00,,,0.00,WeatherCatV1.11B39,2013-07-19 18:53:00,
2013-07-19 14:58:00,91.7,71.0,29.60,WNW,294,7.0,10.0,51,0.00,,,0.00,WeatherCatV1.11B39,2013-07-19 18:58:00,
2013-07-19 15:03:00,91.9,71.1,29.60,WSW,248,8.0,17.0,51,0.00,,,0.00,WeatherCatV1.11B39,2013-07-19 19:03:00,
2013-07-19 15:08:00,92.1,70.7,29.60,WSW,252,7.0,13.0,50,0.00,,,0.00,WeatherCatV1.11B39,2013-07-19 19:08:00,
2013-07-19 15:13:00,92.1,71.9,29.59,WSW,243,5.0,10.0,52,0.00,,,0.00,WeatherCatV1.11B39,2013-07-19 19:13:00,
2013-07-19 15:18:00,92.1,70.1,29.58,WSW,256,11.0,14.0,49,0.00,,,0.00,WeatherCatV1.11B39,2013-07-19 19:18:00,
2013-07-19 15:23:00,92.1,71.9,29.59,West,270,3.0,9.0,52,0.00,,,0.00,WeatherCatV1.11B39,2013-07-19 19:23:00,
2013-07-19 15:28:00,92.1,71.3,29.58,WSW,246,11.0,12.0,51,0.00,,,0.00,WeatherCatV1.11B39,2013-07-19 19:28:00,
2013-07-19 15:33:00,91.9,70.6,29.58,WSW,254,6.0,11.0,50,0.00,,,0.00,WeatherCatV1.11B39,2013-07-19 19:33:00,
2013-07-19 15:38:00,91.9,70.6,29.58,WSW,249,6.0,11.0,50,0.00,,,0.00,WeatherCatV1.11B39,2013-07-19 19:38:00,
2013-07-19 15:43:00,92.1,71.9,29.58,West,267,2.0,15.0,52,0.00,,,0.00,WeatherCatV1.11B39,2013-07-19 19:43:00,
2013-07-19 15:48:00,92.1,70.7,29.57,WSW,249,5.0,7.0,50,0.00,,,0.00,WeatherCatV1.11B39,2013-07-19 19:48:00,
2013-07-19 15:53:00,92.1,72.5,29.57,WSW,253,6.0,9.0,53,0.00,,,0.00,WeatherCatV1.11B39,2013-07-19 19:53:00,
2013-07-19 15:58:00,91.9,72.3,29.57,WSW,253,9.0,14.0,53,0.00,,,0.00,WeatherCatV1.11B39,2013-07-19 19:58:00,
2013-07-19 16:03:00,91.6,70.3,29.57,WSW,253,9.0,11.0,50,0.00,,,0.00,WeatherCatV1.11B39,2013-07-19 20:03:00,
2013-07-19 16:08:00,91.6,71.4,29.57,West,259,14.0,20.0,52,0.00,,,0.00,WeatherCatV1.11B39,2013-07-19 20:08:00,
2013-07-19 16:13:00,91.9,71.7,29.57,West,262,8.0,12.0,52,0.00,,,0.00,WeatherCatV1.11B39,2013-07-19 20:13:00,
2013-07-19 16:18:00,91.9,72.3,29.57,WSW,256,8.0,8.0,53,0.00,,,0.00,WeatherCatV1.11B39,2013-07-19 20:18:00,
2013-07-19 16:23:00,91.9,71.7,29.56,West,261,6.0,17.0,52,0.00,,,0.00,WeatherCatV1.11B39,2013-07-19 20:23:00,
2013-07-19 16:28:00,91.9,71.7,29.56,WNW,294,5.0,13.0,52,0.00,,,0.00,WeatherCatV1.11B39,2013-07-19 20:28:00,
2013-07-19 16:33:00,91.9,71.7,29.56,WSW,251,11.0,13.0,52,0.00,,,0.00,WeatherCatV1.11B39,2013-07-19 20:33:00,
2013-07-19 16:38:00,91.9,72.8,29.56,WSW,246,8.0,12.0,54,0.00,,,0.00,WeatherCatV1.11B39,2013-07-19 20:38:00,
2013-07-19 16:43:00,91.9,72.3,29.55,WSW,254,7.0,15.0,53,0.00,,,0.00,WeatherCatV1.11B39,2013-07-19 20:43:00,
2013-07-19 16:48:00,91.7,71.0,29.56,West,268,14.0,18.0,51,0.00,,,0.00,WeatherCatV1.11B39,2013-07-19 20:48:00,
2013-07-19 16:53:00,91.4,71.3,29.55,West,264,5.0,12.0,52,0.00,,,0.00,WeatherCatV1.11B39,2013-07-19 20:53:00,
2013-07-19 16:58:00,91.2,72.2,29.55,SW,228,4.0,16.0,54,0.00,,,0.00,WeatherCatV1.11B39,2013-07-19 20:58:00,
2013-07-19 17:03:00,91.2,71.6,29.55,WSW,250,6.0,8.0,53,0.00,,,0.00,WeatherCatV1.11B39,2013-07-19 21:03:00,
2013-07-19 17:08:00,91.0,72.5,29.55,WSW,248,9.0,11.0,55,0.00,,,0.00,WeatherCatV1.11B39,2013-07-19 21:08:00,
2013-07-19 17:13:00,91.0,72.0,29.54,WSW,257,8.0,14.0,54,0.00,,,0.00,WeatherCatV1.11B39,2013-07-19 21:13:00,
2013-07-19 17:18:00,91.0,73.1,29.55,WSW,243,0.0,5.0,56,0.00,,,0.00,WeatherCatV1.11B39,2013-07-19 21:18:00,
2013-07-19 17:23:00,91.0,73.1,29.55,WSW,240,2.0,7.0,56,0.00,,,0.00,WeatherCatV1.11B39,2013-07-19 21:23:00,
2013-07-19 17:28:00,91.0,73.1,29.55,WSW,250,5.0,10.0,56,0.00,,,0.00,WeatherCatV1.11B39,2013-07-19 21:28:00,
2013-07-19 17:33:00,90.8,73.9,29.54,West,265,6.0,7.0,58,0.00,,,0.00,WeatherCatV1.11B39,2013-07-19 21:33:00,
2013-07-19 17:38:00,90.7,72.8,29.54,WSW,245,4.0,8.0,56,0.00,,,0.00,WeatherCatV1.11B39,2013-07-19 21:38:00,
2013-07-19 17:43:00,90.6,73.2,29.54,WSW,256,7.0,13.0,57,0.00,,,0.00,WeatherCatV1.11B39,2013-07-19 21:43:00,
2013-07-19 17:48:00,90.3,72.4,29.55,West,261,12.0,13.0,56,0.00,,,0.00,WeatherCatV1.11B39,2013-07-19 21:48:00,
2013-07-19 17:53:00,90.4,73.1,29.54,West,263,5.0,8.0,57,0.00,,,0.00,WeatherCatV1.11B39,2013-07-19 21:53:00,
2013-07-19 17:58:00,90.2,72.9,29.55,WSW,246,7.0,11.0,57,0.00,,,0.00,WeatherCatV1.11B39,2013-07-19 21:58:00,
2013-07-19 18:03:00,90.2,72.9,29.54,WSW,252,0.0,9.0,57,0.00,,,0.00,WeatherCatV1.11B39,2013-07-19 22:03:00,
2013-07-19 18:08:00,89.9,73.1,29.54,WSW,255,3.0,8.0,58,0.00,,,0.00,WeatherCatV1.11B39,2013-07-19 22:08:00,
2013-07-19 18:13:00,89.9,73.1,29.54,WSW,252,6.0,10.0,58,0.00,,,0.00,WeatherCatV1.11B39,2013-07-19 22:13:00,
2013-07-19 18:18:00,89.8,73.0,29.55,WSW,256,4.0,11.0,58,0.00,,,0.00,WeatherCatV1.11B39,2013-07-19 22:18:00,
2013-07-19 18:23:00,89.8,72.5,29.55,WSW,249,0.0,4.0,57,0.00,,,0.00,WeatherCatV1.11B39,2013-07-19 22:23:00,
2013-07-19 18:28:00,89.8,72.5,29.55,WSW,248,1.0,5.0,57,0.00,,,0.00,WeatherCatV1.11B39,2013-07-19 22:28:00,
2013-07-19 18:33:00,89.5,73.7,29.55,WSW,252,7.0,7.0,60,0.00,,,0.00,WeatherCatV1.11B39,2013-07-19 22:33:00,
2013-07-19 18:38:00,89.3,73.6,29.55,WSW,246,4.0,9.0,60,0.00,,,0.00,WeatherCatV1.11B39,2013-07-19 22:38:00,
2013-07-19 18:43:00,89.3,74.0,29.55,WSW,247,2.0,5.0,61,0.00,,,0.00,WeatherCatV1.11B39,2013-07-19 22:43:00,
2013-07-19 18:48:00,89.1,74.3,29.54,WSW,258,5.0,5.0,62,0.00,,,0.00,WeatherCatV1.11B39,2013-07-19 22:48:00,
2013-07-19 18:53:00,88.9,74.6,29.55,WSW,249,5.0,11.0,63,0.00,,,0.00,WeatherCatV1.11B39,2013-07-19 22:53:00,
2013-07-19 18:58:00,88.9,74.6,29.55,West,259,4.0,8.0,63,0.00,,,0.00,WeatherCatV1.11B39,2013-07-19 22:58:00,
2013-07-19 19:03:00,88.9,75.1,29.55,WSW,248,6.0,8.0,64,0.00,,,0.00,WeatherCatV1.11B39,2013-07-19 23:03:00,
2013-07-19 19:08:00,88.7,74.9,29.55,WSW,253,5.0,9.0,64,0.00,,,0.00,WeatherCatV1.11B39,2013-07-19 23:08:00,
2013-07-19 19:13:00,88.7,75.4,29.55,WSW,247,0.0,0.0,65,0.00,,,0.00,WeatherCatV1.11B39,2013-07-19 23:13:00,
2013-07-19 19:18:00,88.5,74.7,29.56,SW,219,3.0,6.0,64,0.00,,,0.00,WeatherCatV1.11B39,2013-07-19 23:18:00,
2013-07-19 19:23:00,88.5,75.7,29.56,WSW,237,5.0,11.0,66,0.00,,,0.00,WeatherCatV1.11B39,2013-07-19 23:23:00,
2013-07-19 19:28:00,88.3,75.0,29.56,WSW,251,7.0,10.0,65,0.00,,,0.00,WeatherCatV1.11B39,2013-07-19 23:28:00,
2013-07-19 19:33:00,88.3,75.9,29.56,WSW,247,5.0,7.0,67,0.00,,,0.00,WeatherCatV1.11B39,2013-07-19 23:33:00,
2013-07-19 19:38:00,88.1,75.3,29.56,WSW,253,1.0,10.0,66,0.00,,,0.00,WeatherCatV1.11B39,2013-07-19 23:38:00,
2013-07-19 19:43:00,88.1,75.7,29.56,SW,230,2.0,7.0,67,0.00,,,0.00,WeatherCatV1.11B39,2013-07-19 23:43:00,
2013-07-19 19:48:00,87.9,76.0,29.56,West,262,0.0,5.0,68,0.00,,,0.00,WeatherCatV1.11B39,2013-07-19 23:48:00,
2013-07-19 19:53:00,87.8,75.9,29.56,WSW,250,3.0,10.0,68,0.00,,,0.00,WeatherCatV1.11B39,2013-07-19 23:53:00,
2013-07-19 19:58:00,87.7,75.8,29.56,WSW,243,3.0,7.0,68,0.00,,,0.00,WeatherCatV1.11B39,2013-07-19 23:58:00,
2013-07-19 20:03:00,87.5,75.6,29.56,WSW,243,0.0,4.0,68,0.00,,,0.00,WeatherCatV1.11B39,2013-07-20 00:03:00,
2013-07-19 20:08:00,87.3,75.9,29.56,WSW,243,7.0,7.0,69,0.00,,,0.00,WeatherCatV1.11B39,2013-07-20 00:08:00,
2013-07-19 20:13:00,87.3,75.9,29.56,WSW,247,0.0,4.0,69,0.00,,,0.00,WeatherCatV1.11B39,2013-07-20 00:13:00,
2013-07-19 20:18:00,87.1,75.7,29.56,WSW,243,0.0,5.0,69,0.00,,,0.00,WeatherCatV1.11B39,2013-07-20 00:18:00,
2013-07-19 20:23:00,87.1,75.7,29.56,WSW,249,5.0,5.0,69,0.00,,,0.00,WeatherCatV1.11B39,2013-07-20 00:23:00,
2013-07-19 20:28:00,86.9,75.5,29.56,WSW,241,0.0,7.0,69,0.00,,,0.00,WeatherCatV1.11B39,2013-07-20 00:28:00,
2013-07-19 20:33:00,86.8,75.4,29.56,WSW,253,5.0,5.0,69,0.00,,,0.00,WeatherCatV1.11B39,2013-07-20 00:33:00,
2013-07-19 20:38:00,86.6,75.6,29.56,WSW,250,0.0,3.0,70,0.00,,,0.00,WeatherCatV1.11B39,2013-07-20 00:38:00,
2013-07-19 20:43:00,86.6,75.6,29.56,WSW,239,4.0,4.0,70,0.00,,,0.00,WeatherCatV1.11B39,2013-07-20 00:43:00,
2013-07-19 20:48:00,86.5,75.1,29.57,SW,233,4.0,5.0,69,0.00,,,0.00,WeatherCatV1.11B39,2013-07-20 00:48:00,
2013-07-19 20:53:00,86.4,75.0,29.57,WSW,239,0.0,0.0,69,0.00,,,0.00,WeatherCatV1.11B39,2013-07-20 00:53:00,
2013-07-19 20:58:00,86.4,75.0,29.57,WSW,257,3.0,6.0,69,0.00,,,0.00,WeatherCatV1.11B39,2013-07-20 00:58:00,
2013-07-19 21:03:00,86.3,75.3,29.57,WSW,253,0.0,1.0,70,0.00,,,0.00,WeatherCatV1.11B39,2013-07-20 01:03:00,
2013-07-19 21:08:00,86.0,74.6,29.57,WSW,240,0.0,0.0,69,0.00,,,0.00,WeatherCatV1.11B39,2013-07-20 01:08:00,
2013-07-19 21:13:00,86.0,74.6,29.57,SW,236,0.0,0.0,69,0.00,,,0.00,WeatherCatV1.11B39,2013-07-20 01:13:00,
2013-07-19 21:18:00,86.0,74.6,29.57,WSW,243,0.0,0.0,69,0.00,,,0.00,WeatherCatV1.11B39,2013-07-20 01:18:00,
2013-07-19 21:23:00,85.8,74.4,29.57,WSW,242,0.0,1.0,69,0.00,,,0.00,WeatherCatV1.11B39,2013-07-20 01:23:00,
2013-07-19 21:28:00,85.8,74.4,29.57,SW,233,0.0,6.0,69,0.00,,,0.00,WeatherCatV1.11B39,2013-07-20 01:28:00,
2013-07-19 21:33:00,85.8,74.4,29.57,WSW,252,5.0,7.0,69,0.00,,,0.00,WeatherCatV1.11B39,2013-07-20 01:33:00,
2013-07-19 21:38:00,85.8,74.0,29.57,WSW,249,1.0,1.0,68,0.00,,,0.00,WeatherCatV1.11B39,2013-07-20 01:38:00,
2013-07-19 21:43:00,85.8,74.4,29.57,WSW,249,0.0,5.0,69,0.00,,,0.00,WeatherCatV1.11B39,2013-07-20 01:43:00,
2013-07-19 21:48:00,85.8,74.4,29.57,WSW,242,0.0,4.0,69,0.00,,,0.00,WeatherCatV1.11B39,2013-07-20 01:48:00,
2013-07-19 21:53:00,85.6,74.2,29.56,WSW,246,0.0,1.0,69,0.00,,,0.00,WeatherCatV1.11B39,2013-07-20 01:53:00,
2013-07-19 21:58:00,85.4,74.0,29.57,SW,235,0.0,7.0,69,0.00,,,0.00,WeatherCatV1.11B39,2013-07-20 01:58:00,
2013-07-19 22:03:00,85.6,74.2,29.57,WSW,251,0.0,10.0,69,0.00,,,0.00,WeatherCatV1.11B39,2013-07-20 02:03:00,
2013-07-19 22:08:00,85.6,74.2,29.57,SW,234,0.0,0.0,69,0.00,,,0.00,WeatherCatV1.11B39,2013-07-20 02:08:00,
2013-07-19 22:13:00,85.4,73.6,29.57,SW,218,1.0,10.0,68,0.00,,,0.00,WeatherCatV1.11B39,2013-07-20 02:13:00,
2013-07-19 22:18:00,85.2,73.4,29.57,WSW,251,0.0,2.0,68,0.00,,,0.00,WeatherCatV1.11B39,2013-07-20 02:18:00,
2013-07-19 22:23:00,85.2,73.9,29.57,WSW,244,0.0,0.0,69,0.00,,,0.00,WeatherCatV1.11B39,2013-07-20 02:23:00,
2013-07-19 22:28:00,85.0,73.7,29.57,WSW,242,0.0,6.0,69,0.00,,,0.00,WeatherCatV1.11B39,2013-07-20 02:28:00,
2013-07-19 22:33:00,85.0,73.7,29.57,WSW,246,3.0,8.0,69,0.00,,,0.00,WeatherCatV1.11B39,2013-07-20 02:33:00,
2013-07-19 22:38:00,84.8,73.5,29.58,WSW,243,0.0,6.0,69,0.00,,,0.00,WeatherCatV1.11B39,2013-07-20 02:38:00,
2013-07-19 22:43:00,84.4,73.5,29.58,SW,233,0.0,4.0,70,0.00,,,0.00,WeatherCatV1.11B39,2013-07-20 02:43:00,
2013-07-19 22:48:00,84.2,74.2,29.58,SW,224,0.0,1.0,72,0.00,,,0.00,WeatherCatV1.11B39,2013-07-20 02:48:00,
2013-07-19 22:53:00,84.2,73.7,29.57,SW,229,0.0,5.0,71,0.00,,,0.00,WeatherCatV1.11B39,2013-07-20 02:53:00,
2013-07-19 22:58:00,84.2,74.2,29.58,SW,229,0.0,0.0,72,0.00,,,0.00,WeatherCatV1.11B39,2013-07-20 02:58:00,
2013-07-19 23:03:00,84.0,73.6,29.58,WSW,243,0.0,0.0,71,0.00,,,0.00,WeatherCatV1.11B39,2013-07-20 03:03:00,
2013-07-19 23:08:00,84.0,73.6,29.58,WSW,240,0.0,0.0,71,0.00,,,0.00,WeatherCatV1.11B39,2013-07-20 03:08:00,
2013-07-19 23:13:00,83.8,74.2,29.57,WSW,237,1.0,1.0,73,0.00,,,0.00,WeatherCatV1.11B39,2013-07-20 03:13:00,
2013-07-19 23:18:00,83.8,73.8,29.58,WSW,246,5.0,6.0,72,0.00,,,0.00,WeatherCatV1.11B39,2013-07-20 03:18:00,
2013-07-19 23:23:00,84.0,74.0,29.57,WSW,257,0.0,2.0,72,0.00,,,0.00,WeatherCatV1.11B39,2013-07-20 03:23:00,
2013-07-19 23:28:00,84.0,73.6,29.57,WSW,246,0.0,5.0,71,0.00,,,0.00,WeatherCatV1.11B39,2013-07-20 03:28:00,
2013-07-19 23:33:00,83.8,73.4,29.57,WSW,252,0.0,4.0,71,0.00,,,0.00,WeatherCatV1.11B39,2013-07-20 03:33:00,
2013-07-19 23:38:00,83.9,73.5,29.56,West,269,0.0,0.0,71,0.00,,,0.00,WeatherCatV1.11B39,2013-07-20 03:38:00,
2013-07-19 23:43:00,83.8,73.8,29.56,WSW,247,3.0,6.0,72,0.00,,,0.00,WeatherCatV1.11B39,2013-07-20 03:43:00,
2013-07-19 23:48:00,83.8,73.4,29.56,WSW,242,0.0,8.0,71,0.00,,,0.00,WeatherCatV1.11B39,2013-07-20 03:48:00,
2013-07-19 23:53:00,83.9,73.5,29.57,WSW,245,0.0,0.0,71,0.00,,,0.00,WeatherCatV1.11B39,2013-07-20 03:53:00,
2013-07-19 23:58:00,84.0,73.6,29.57,WSW,254,4.0,5.0,71,0.00,,,0.00,WeatherCatV1.11B39,2013-07-20 03:58:00,